createdAt,value
2022-08-07T00:00:22.040Z,100.00
2022-08-07T00:02:56.776Z,100.00
2022-08-07T00:05:27.601Z,100.00
2022-08-07T00:08:00.482Z,100.00
2022-08-07T00:10:32.613Z,100.00
2022-08-07T00:13:17.499Z,100.00
2022-08-07T00:15:57.586Z,100.00
2022-08-07T00:18:32.972Z,100.00
2022-08-07T00:21:07.890Z,100.00
2022-08-07T00:23:40.238Z,100.00
2022-08-07T00:26:31.193Z,100.00
2022-08-07T00:29:03.644Z,100.00
2022-08-07T00:31:37.980Z,100.00
2022-08-07T00:34:17.082Z,100.00
2022-08-07T00:36:51.761Z,100.00
2022-08-07T00:39:22.525Z,100.00
2022-08-07T00:42:02.470Z,100.00
2022-08-07T00:44:35.202Z,100.00
2022-08-07T00:47:15.651Z,100.00
2022-08-07T00:50:19.476Z,100.00
2022-08-07T00:52:58.995Z,100.00
2022-08-07T00:56:02.231Z,100.00
2022-08-07T00:58:22.510Z,100.00
2022-08-07T01:00:56.985Z,100.00
2022-08-07T01:03:55.546Z,100.00
2022-08-07T01:06:21.916Z,100.00
2022-08-07T01:08:55.727Z,100.00
2022-08-07T01:12:23.405Z,100.00
2022-08-07T01:14:21.329Z,100.00
2022-08-07T01:17:00.419Z,100.00
2022-08-07T01:19:38.318Z,100.00
2022-08-07T01:22:22.658Z,100.00
2022-08-07T01:24:59.756Z,100.00
2022-08-07T01:27:32.571Z,100.00
2022-08-07T01:30:05.201Z,100.00
2022-08-07T01:32:36.185Z,100.00
2022-08-07T01:35:07.807Z,100.00
2022-08-07T01:37:42.060Z,100.00
2022-08-07T01:40:14.793Z,100.00
2022-08-07T01:42:58.812Z,100.00
2022-08-07T01:45:36.988Z,100.00
2022-08-07T01:48:20.040Z,100.00
2022-08-07T01:51:24.495Z,100.00
2022-08-07T01:54:09.260Z,100.00
2022-08-07T01:56:49.908Z,100.00
2022-08-07T01:59:31.096Z,100.00
2022-08-07T02:03:12.185Z,100.00
2022-08-07T02:05:09.020Z,100.00
2022-08-07T02:07:52.139Z,100.00
2022-08-07T02:10:28.366Z,100.00
2022-08-07T02:13:02.686Z,100.00
2022-08-07T02:15:34.866Z,100.00
2022-08-07T02:18:07.770Z,100.00
2022-08-07T02:20:39.265Z,100.00
2022-08-07T02:23:12.597Z,100.00
2022-08-07T02:26:31.942Z,100.00
2022-08-07T02:28:47.777Z,100.00
2022-08-07T02:31:29.235Z,100.00
2022-08-07T02:34:03.820Z,100.00
2022-08-07T02:36:35.785Z,100.00
2022-08-07T02:39:17.293Z,100.00
2022-08-07T02:42:02.785Z,100.00
2022-08-07T02:44:36.389Z,100.00
2022-08-07T02:47:07.165Z,100.00
2022-08-07T02:49:58.571Z,100.00
2022-08-07T02:52:33.290Z,100.00
2022-08-07T02:55:27.673Z,100.00
2022-08-07T02:58:06.088Z,100.00
2022-08-07T03:00:46.733Z,100.00
2022-08-07T03:03:21.037Z,100.00
2022-08-07T03:05:56.965Z,100.00
2022-08-07T03:08:29.532Z,100.00
2022-08-07T03:11:01.009Z,100.00
2022-08-07T03:13:38.992Z,100.00
2022-08-07T03:16:09.322Z,100.00
2022-08-07T03:18:39.654Z,100.00
2022-08-07T03:21:18.862Z,100.00
2022-08-07T03:24:20.624Z,100.00
2022-08-07T03:26:58.422Z,100.00
2022-08-07T03:29:37.523Z,100.00
2022-08-07T03:32:13.134Z,100.00
2022-08-07T03:34:47.598Z,100.00
2022-08-07T03:37:37.401Z,100.00
2022-08-07T03:40:18.492Z,100.00
2022-08-07T03:42:49.770Z,100.00
2022-08-07T03:45:30.984Z,100.00
2022-08-07T03:48:02.508Z,100.00
2022-08-07T03:50:34.843Z,100.00
2022-08-07T03:53:07.353Z,100.00
2022-08-07T03:55:53.414Z,100.00
2022-08-07T03:59:09.242Z,100.00
2022-08-07T04:01:28.268Z,100.00
2022-08-07T04:03:58.720Z,100.00
2022-08-07T04:06:37.424Z,100.00
2022-08-07T04:09:15.677Z,100.00
2022-08-07T04:12:24.221Z,100.00
2022-08-07T04:14:43.761Z,100.00
2022-08-07T04:17:20.902Z,100.00
2022-08-07T04:19:54.840Z,100.00
2022-08-07T04:22:29.688Z,100.00
2022-08-07T04:25:02.835Z,100.00
2022-08-07T04:27:35.734Z,100.00
2022-08-07T04:30:35.884Z,100.00
2022-08-07T04:33:08.682Z,100.00
2022-08-07T04:35:40.470Z,100.00
2022-08-07T04:38:14.846Z,100.00
2022-08-07T04:40:52.701Z,100.00
2022-08-07T04:44:10.354Z,100.00
2022-08-07T04:46:34.753Z,100.00
2022-08-07T04:49:24.734Z,100.00
2022-08-07T04:52:05.996Z,100.00
2022-08-07T04:54:44.869Z,100.00
2022-08-07T04:58:07.829Z,100.00
2022-08-07T05:00:30.699Z,100.00
2022-08-07T05:03:16.807Z,100.00
2022-08-07T05:06:16.487Z,100.00
2022-08-07T05:09:01.314Z,100.00
2022-08-07T05:11:57.348Z,100.00
2022-08-07T05:14:56.532Z,100.00
2022-08-07T05:17:52.319Z,100.00
2022-08-07T05:20:25.870Z,100.00
2022-08-07T05:23:03.932Z,100.00
2022-08-07T05:26:10.688Z,100.00
2022-08-07T05:28:29.011Z,100.00
2022-08-07T05:31:06.872Z,100.00
2022-08-07T05:33:39.774Z,100.00
2022-08-07T05:36:30.275Z,100.00
2022-08-07T05:40:05.434Z,100.00
2022-08-07T05:42:01.895Z,100.00
2022-08-07T05:44:46.545Z,100.00
2022-08-07T05:47:38.449Z,100.00
2022-08-07T05:50:18.762Z,100.00
2022-08-07T05:52:49.804Z,100.00
2022-08-07T05:55:23.128Z,100.00
2022-08-07T05:58:14.718Z,100.00
2022-08-07T06:00:51.055Z,100.00
2022-08-07T06:03:22.545Z,100.00
2022-08-07T06:05:56.494Z,100.00
2022-08-07T06:08:30.690Z,100.00
2022-08-07T06:11:05.018Z,100.00
2022-08-07T06:14:10.549Z,100.00
2022-08-07T06:16:31.748Z,100.00
2022-08-07T06:19:06.575Z,100.00
2022-08-07T06:22:14.629Z,100.00
2022-08-07T06:24:38.006Z,100.00
2022-08-07T06:27:44.321Z,100.00
2022-08-07T06:30:31.970Z,100.00
2022-08-07T06:33:10.001Z,100.00
2022-08-07T06:36:06.162Z,100.00
2022-08-07T06:38:38.908Z,100.00
2022-08-07T06:41:29.378Z,97.90
2022-08-07T06:44:22.012Z,99.26
2022-08-07T06:47:10.600Z,98.71
2022-08-07T06:49:50.899Z,98.56
2022-08-07T06:52:31.597Z,96.75
2022-08-07T06:55:32.989Z,94.25
2022-08-07T06:58:40.564Z,93.80
2022-08-07T07:01:48.689Z,91.47
2022-08-07T07:04:35.811Z,91.40
2022-08-07T07:07:19.315Z,90.14
2022-08-07T07:10:04.123Z,85.00
2022-08-07T07:12:48.567Z,85.71
2022-08-07T07:15:32.373Z,84.03
2022-08-07T07:18:12.893Z,84.10
2022-08-07T07:20:47.473Z,78.41
2022-08-07T07:24:05.645Z,78.44
2022-08-07T07:26:35.720Z,76.94
2022-08-07T07:29:55.892Z,78.63
2022-08-07T07:32:14.762Z,74.14
2022-08-07T07:34:52.184Z,73.85
2022-08-07T07:37:45.204Z,71.05
2022-08-07T07:40:19.892Z,70.00
2022-08-07T07:42:54.135Z,70.60
2022-08-07T07:46:37.730Z,70.70
2022-08-07T07:48:35.324Z,67.73
2022-08-07T07:51:11.219Z,64.51
2022-08-07T07:53:51.824Z,61.52
2022-08-07T07:56:30.532Z,63.43
2022-08-07T07:59:07.444Z,60.91
2022-08-07T08:02:05.005Z,62.29
2022-08-07T08:04:38.362Z,61.63
2022-08-07T08:07:15.149Z,59.12
2022-08-07T08:10:05.506Z,60.17
2022-08-07T08:12:52.552Z,62.56
2022-08-07T08:15:27.022Z,60.04
2022-08-07T08:18:19.046Z,59.14
2022-08-07T08:20:51.182Z,57.90
2022-08-07T08:23:39.966Z,57.06
2022-08-07T08:26:25.125Z,53.92
2022-08-07T08:29:02.098Z,54.92
2022-08-07T08:32:17.495Z,54.18
2022-08-07T08:34:29.140Z,54.23
2022-08-07T08:37:01.275Z,56.83
2022-08-07T08:39:39.832Z,54.83
2022-08-07T08:42:30.028Z,54.93
2022-08-07T08:45:13.240Z,53.48
2022-08-07T08:47:52.387Z,50.90
2022-08-07T08:50:39.366Z,52.05
2022-08-07T08:53:19.352Z,52.08
2022-08-07T08:55:59.246Z,53.44
2022-08-07T08:58:39.242Z,53.42
2022-08-07T09:01:18.688Z,51.45
2022-08-07T09:04:01.688Z,51.70
2022-08-07T09:06:55.203Z,51.77
2022-08-07T09:09:47.462Z,51.97
2022-08-07T09:12:40.756Z,51.09
2022-08-07T09:16:24.186Z,51.07
2022-08-07T09:18:36.752Z,53.84
2022-08-07T09:21:33.794Z,54.23
2022-08-07T09:24:35.003Z,51.88
2022-08-07T09:27:28.983Z,51.65
2022-08-07T09:30:09.054Z,50.37
2022-08-07T09:32:58.798Z,48.93
2022-08-07T09:36:02.676Z,48.05
2022-08-07T09:38:49.983Z,49.15
2022-08-07T09:41:43.131Z,49.54
2022-08-07T09:44:58.686Z,50.45
2022-08-07T09:47:58.881Z,48.05
2022-08-07T09:50:38.015Z,46.65
2022-08-07T09:53:17.673Z,46.24
2022-08-07T09:56:13.832Z,48.02
2022-08-07T09:59:07.725Z,44.79
2022-08-07T10:02:03.801Z,44.26
2022-08-07T10:05:12.675Z,45.30
2022-08-07T10:07:59.765Z,43.83
2022-08-07T10:11:16.522Z,43.49
2022-08-07T10:14:01.878Z,43.29
2022-08-07T10:17:14.398Z,44.77
2022-08-07T10:20:04.116Z,43.54
2022-08-07T10:23:09.650Z,43.52
2022-08-07T10:25:53.219Z,44.46
2022-08-07T10:28:49.930Z,44.57
2022-08-07T10:31:59.043Z,47.81
2022-08-07T10:34:52.848Z,48.75
2022-08-07T10:37:59.990Z,49.31
2022-08-07T10:40:34.136Z,47.88
2022-08-07T10:43:10.460Z,48.06
2022-08-07T10:45:44.888Z,46.49
2022-08-07T10:48:37.858Z,45.84
2022-08-07T10:51:38.921Z,45.04
2022-08-07T10:54:15.934Z,43.24
2022-08-07T10:57:01.586Z,45.07
2022-08-07T10:59:47.495Z,46.17
2022-08-07T11:02:33.498Z,46.90
2022-08-07T11:05:15.462Z,50.97
2022-08-07T11:08:02.625Z,50.20
2022-08-07T11:10:41.297Z,50.99
2022-08-07T11:14:42.017Z,53.63
2022-08-07T11:16:14.859Z,53.09
2022-08-07T11:18:55.147Z,54.76
2022-08-07T11:21:40.731Z,52.72
2022-08-07T11:24:23.893Z,53.30
2022-08-07T11:27:06.625Z,52.34
2022-08-07T11:29:47.358Z,51.36
2022-08-07T11:32:25.859Z,50.88
2022-08-07T11:35:00.394Z,48.41
2022-08-07T11:37:57.789Z,50.78
2022-08-07T11:40:49.546Z,49.70
2022-08-07T11:43:41.635Z,49.57
2022-08-07T11:46:31.707Z,49.12
2022-08-07T11:50:11.305Z,50.03
2022-08-07T11:52:48.797Z,46.76
2022-08-07T11:56:25.528Z,44.82
2022-08-07T11:58:36.983Z,46.02
2022-08-07T12:01:20.352Z,45.57
2022-08-07T12:04:17.647Z,44.15
2022-08-07T12:07:00.404Z,44.62
2022-08-07T12:09:39.178Z,44.61
2022-08-07T12:12:13.528Z,46.06
2022-08-07T12:14:56.390Z,45.12
2022-08-07T12:17:59.782Z,45.29
2022-08-07T12:20:36.461Z,45.60
2022-08-07T12:24:05.069Z,46.25
2022-08-07T12:26:35.400Z,46.45
2022-08-07T12:29:22.561Z,46.39
2022-08-07T12:32:19.264Z,46.77
2022-08-07T12:34:53.452Z,46.67
2022-08-07T12:38:09.378Z,46.46
2022-08-07T12:40:46.379Z,47.47
2022-08-07T12:44:01.592Z,47.44
2022-08-07T12:46:26.224Z,48.72
2022-08-07T12:49:25.837Z,47.37
2022-08-07T12:52:14.134Z,49.10
2022-08-07T12:54:54.640Z,47.27
2022-08-07T12:57:59.295Z,47.25
2022-08-07T13:00:51.716Z,47.42
2022-08-07T13:03:59.224Z,48.84
2022-08-07T13:06:54.229Z,47.29
2022-08-07T13:10:20.426Z,46.33
2022-08-07T13:12:47.423Z,46.00
2022-08-07T13:15:32.200Z,46.35
2022-08-07T13:18:26.480Z,45.11
2022-08-07T13:21:08.297Z,45.13
2022-08-07T13:24:01.244Z,44.97
2022-08-07T13:26:46.140Z,46.14
2022-08-07T13:29:23.384Z,46.10
2022-08-07T13:32:23.526Z,47.68
2022-08-07T13:35:08.710Z,48.35
2022-08-07T13:37:58.808Z,47.98
2022-08-07T13:40:42.763Z,47.58
2022-08-07T13:43:16.279Z,48.19
2022-08-07T13:46:11.225Z,47.46
2022-08-07T13:48:41.955Z,46.52
2022-08-07T13:51:28.164Z,47.85
2022-08-07T13:54:22.576Z,48.41
2022-08-07T13:57:03.069Z,48.66
2022-08-07T13:59:35.936Z,49.68
2022-08-07T14:02:13.789Z,49.24
2022-08-07T14:04:54.887Z,50.39
2022-08-07T14:07:32.079Z,49.12
2022-08-07T14:10:21.570Z,49.69
2022-08-07T14:13:03.748Z,50.99
2022-08-07T14:15:40.798Z,50.62
2022-08-07T14:18:28.993Z,52.30
2022-08-07T14:21:08.236Z,52.78
2022-08-07T14:24:00.751Z,52.17
2022-08-07T14:26:38.363Z,52.96
2022-08-07T14:30:06.613Z,53.74
2022-08-07T14:32:10.532Z,54.21
2022-08-07T14:34:45.649Z,54.96
2022-08-07T14:37:36.415Z,54.66
2022-08-07T14:40:26.625Z,55.00
2022-08-07T14:43:57.810Z,54.07
2022-08-07T14:45:57.307Z,52.24
2022-08-07T14:48:33.061Z,52.52
2022-08-07T14:51:07.394Z,52.00
2022-08-07T14:54:06.596Z,52.12
2022-08-07T14:56:43.878Z,53.70
2022-08-07T15:00:03.625Z,51.64
2022-08-07T15:02:31.841Z,51.22
2022-08-07T15:05:20.439Z,51.14
2022-08-07T15:07:53.443Z,51.12
2022-08-07T15:10:30.056Z,50.96
2022-08-07T15:15:54.984Z,49.66
2022-08-07T15:18:36.310Z,50.36
2022-08-07T15:21:43.744Z,51.51
2022-08-07T15:25:15.069Z,53.43
2022-08-07T15:27:12.104Z,54.64
2022-08-07T15:33:01.492Z,56.37
2022-08-07T15:38:33.076Z,51.84
2022-08-07T15:44:23.571Z,54.05
2022-08-07T15:47:03.667Z,50.64
2022-08-07T15:50:04.321Z,51.69
2022-08-07T15:52:34.370Z,52.96
2022-08-07T15:55:11.416Z,56.01
2022-08-07T15:57:49.402Z,55.25
2022-08-07T16:00:31.767Z,56.57
2022-08-07T16:03:08.431Z,57.12
2022-08-07T16:05:54.932Z,56.16
2022-08-07T16:08:38.048Z,56.85
2022-08-07T16:11:27.126Z,57.57
2022-08-07T16:14:09.985Z,58.10
2022-08-07T16:17:15.188Z,58.88
2022-08-07T16:20:04.816Z,62.12
2022-08-07T16:22:55.032Z,64.45
2022-08-07T16:25:54.361Z,64.61
2022-08-07T16:30:07.733Z,64.85
2022-08-07T16:31:51.429Z,63.37
2022-08-07T16:34:36.522Z,64.47
2022-08-07T16:38:03.866Z,65.44
2022-08-07T16:41:15.781Z,67.90
2022-08-07T16:44:47.518Z,68.48
2022-08-07T16:50:48.437Z,72.89
2022-08-07T16:54:06.841Z,75.31
2022-08-07T16:56:58.907Z,78.88
2022-08-07T16:59:46.796Z,78.99
2022-08-07T17:02:52.881Z,77.95
2022-08-07T17:06:20.008Z,78.73
2022-08-07T17:09:08.598Z,79.52
2022-08-07T17:12:05.196Z,79.81
2022-08-07T17:14:40.562Z,80.77
2022-08-07T17:17:44.226Z,81.77
2022-08-07T17:20:29.869Z,83.58
2022-08-07T17:23:08.736Z,81.55
2022-08-07T17:25:59.182Z,82.66
2022-08-07T17:28:38.452Z,81.69
2022-08-07T17:31:23.815Z,81.71
2022-08-07T17:34:32.894Z,84.31
2022-08-07T17:37:14.411Z,85.16
2022-08-07T17:40:07.789Z,84.54
2022-08-07T17:42:58.162Z,85.20
2022-08-07T17:45:35.253Z,86.68
2022-08-07T17:48:14.767Z,86.87
2022-08-07T17:51:08.939Z,87.04
2022-08-07T17:54:01.493Z,87.13
2022-08-07T17:56:49.517Z,89.06
2022-08-07T17:59:35.945Z,89.47
2022-08-07T18:02:14.666Z,89.75
2022-08-07T18:04:55.048Z,89.82
2022-08-07T18:07:43.532Z,90.38
2022-08-07T18:10:32.019Z,91.72
2022-08-07T18:13:20.389Z,91.19
2022-08-07T18:16:06.534Z,90.20
2022-08-07T18:21:07.006Z,91.40
2022-08-07T18:21:58.563Z,93.00
2022-08-07T18:24:40.291Z,94.55
2022-08-07T18:27:38.232Z,96.34
2022-08-07T18:30:31.156Z,96.89
2022-08-07T18:33:54.994Z,97.68
2022-08-07T18:36:54.115Z,97.38
2022-08-07T18:40:08.271Z,98.16
2022-08-07T18:42:32.473Z,98.52
2022-08-07T18:45:44.772Z,99.54
2022-08-07T18:50:05.435Z,99.94
2022-08-07T18:51:12.462Z,100.00
2022-08-07T18:54:03.457Z,100.00
2022-08-07T18:57:23.216Z,100.00
2022-08-07T18:59:58.859Z,100.00
2022-08-07T19:02:44.646Z,100.00
2022-08-07T19:06:03.235Z,100.00
2022-08-07T19:08:36.620Z,100.00
2022-08-07T19:11:36.754Z,100.00
2022-08-07T19:14:16.831Z,100.00
2022-08-07T19:17:04.740Z,100.00
2022-08-07T19:19:56.852Z,100.00
2022-08-07T19:22:36.399Z,100.00
2022-08-07T19:26:23.199Z,100.00
2022-08-07T19:28:56.586Z,100.00
2022-08-07T19:31:37.268Z,100.00
2022-08-07T19:34:08.319Z,100.00
2022-08-07T19:36:52.188Z,100.00
2022-08-07T19:39:56.459Z,100.00
2022-08-07T19:42:23.305Z,100.00
2022-08-07T19:44:56.724Z,100.00
2022-08-07T19:47:36.769Z,100.00
2022-08-07T19:50:41.193Z,100.00
2022-08-07T19:54:29.704Z,100.00
2022-08-07T19:56:00.621Z,100.00
2022-08-07T19:58:36.479Z,100.00
2022-08-07T20:01:09.555Z,100.00
2022-08-07T20:03:42.578Z,100.00
2022-08-07T20:06:30.420Z,100.00
2022-08-07T20:09:03.446Z,100.00
2022-08-07T20:12:22.706Z,100.00
2022-08-07T20:14:31.686Z,100.00
2022-08-07T20:17:06.495Z,100.00
2022-08-07T20:19:48.278Z,100.00
2022-08-07T20:22:34.756Z,100.00
2022-08-07T20:25:10.644Z,100.00
2022-08-07T20:27:58.452Z,100.00
2022-08-07T20:30:34.537Z,100.00
2022-08-07T20:33:08.978Z,100.00
2022-08-07T20:36:03.490Z,100.00
2022-08-07T20:38:36.934Z,100.00
2022-08-07T20:41:37.932Z,100.00
2022-08-07T20:44:13.384Z,100.00
2022-08-07T20:46:45.203Z,100.00
2022-08-07T20:50:00.583Z,100.00
2022-08-07T20:52:24.428Z,100.00
2022-08-07T20:55:01.045Z,100.00
2022-08-07T20:57:32.884Z,100.00
2022-08-07T21:00:09.756Z,100.00
2022-08-07T21:02:57.957Z,100.00
2022-08-07T21:05:52.858Z,100.00
2022-08-07T21:08:38.031Z,100.00
2022-08-07T21:11:14.176Z,100.00
2022-08-07T21:14:29.907Z,100.00
2022-08-07T21:16:46.807Z,100.00
2022-08-07T21:19:51.039Z,100.00
2022-08-07T21:22:28.705Z,100.00
2022-08-07T21:25:13.082Z,100.00
2022-08-07T21:28:03.626Z,100.00
2022-08-07T21:30:46.494Z,100.00
2022-08-07T21:33:23.858Z,100.00
2022-08-07T21:36:31.751Z,100.00
2022-08-07T21:39:45.321Z,100.00
2022-08-07T21:46:09.455Z,100.00
2022-08-07T21:48:28.990Z,100.00
2022-08-07T21:51:19.238Z,100.00
2022-08-07T21:53:54.291Z,100.00
2022-08-07T21:56:48.019Z,100.00
2022-08-07T22:00:02.609Z,100.00
2022-08-07T22:02:34.155Z,100.00
2022-08-07T22:05:08.775Z,100.00
2022-08-07T22:07:59.707Z,100.00
2022-08-07T22:10:33.749Z,100.00
2022-08-07T22:13:13.589Z,100.00
2022-08-07T22:16:43.245Z,100.00
2022-08-07T22:18:54.472Z,100.00
2022-08-07T22:22:01.961Z,100.00
2022-08-07T22:24:40.580Z,100.00
2022-08-07T22:27:21.151Z,100.00
2022-08-07T22:30:12.837Z,100.00
2022-08-07T22:33:00.910Z,100.00
2022-08-07T22:35:41.502Z,100.00
2022-08-07T22:38:25.858Z,100.00
2022-08-07T22:41:07.577Z,100.00
2022-08-07T22:43:44.638Z,100.00
2022-08-07T22:47:06.372Z,100.00
2022-08-07T22:49:55.053Z,100.00
2022-08-07T22:52:48.546Z,100.00
2022-08-07T22:55:36.010Z,100.00
2022-08-07T22:58:29.420Z,100.00
2022-08-07T23:01:15.359Z,100.00
2022-08-07T23:04:07.633Z,100.00
2022-08-07T23:07:02.235Z,100.00
2022-08-07T23:10:03.487Z,100.00
2022-08-07T23:12:54.579Z,100.00
2022-08-07T23:16:05.433Z,100.00
2022-08-07T23:18:42.324Z,100.00
2022-08-07T23:21:30.194Z,100.00
2022-08-07T23:24:38.512Z,100.00
2022-08-07T23:27:33.627Z,100.00
2022-08-07T23:30:39.037Z,100.00
2022-08-07T23:34:36.190Z,100.00
2022-08-07T23:36:36.267Z,100.00
2022-08-07T23:39:12.623Z,100.00
2022-08-07T23:42:04.638Z,100.00
2022-08-07T23:44:50.113Z,100.00
2022-08-07T23:47:31.388Z,100.00
2022-08-07T23:50:36.817Z,100.00
2022-08-07T23:53:19.000Z,100.00
2022-08-07T23:56:00.979Z,100.00
2022-08-07T23:58:42.347Z,100.00
